Laramie, Wyoming
Current Conditions -  °F | °C
As of 12:53 PM on Saturday 20 Dec 2014 (Local Time) from KLAR Reporting Station
Overcast Overcast  
Wind Chill: 25°   Ceiling: 5000
Heat Index: 35°   Visibility: 10mi
Dew Point: 23°   Wind: 17mph
Humidity: 61%   Direction: 210°SSW
Pressure: 29.96"   Gusts: NA
Location:  41.31°N, 105.59°W
Report Text: KLAR 201953Z AUTO 21015KT 10SM OVC050 02/M05 A2996 RMK AO2 SLP141 T00171050
Loading
Personal Weather Stations






























Interactive Weather Map New forecast layout! Learn more

10-Day Weather Forecast

Advertisements
Track Severe Weather on mobile